Time;durP1;ratioP1;P1;durP2;ratioP2;P2;SDS_P1;SDS_P2;PMS_P1;PMS_P2;Temp;Humidity;BMP_temperature;BMP_pressure;BME280_temperature;BME280_humidity;BME280_pressure;Samples;Min_cycle;Max_cycle;Signal;HPM_P1;HPM_P2
2022/11/29 00:01:58;;;;;;;116.18;71.13;;;103.20;2227.20;;;;;;4991659;28;20034;-62
2022/11/29 00:04:24;;;;;;;105.80;61.65;;;103.30;2227.20;;;;;;4991802;28;20030;-59
2022/11/29 00:06:50;;;;;;;144.15;77.20;;;103.30;2227.20;;;;;;4991220;28;20080;-62
2022/11/29 00:09:17;;;;;;;117.18;61.40;;;128.00;2252.80;;;;;;4991680;28;20077;-60
2022/11/29 00:14:27;;;;;;;159.80;86.05;;;128.00;2252.80;;;;;;4991657;28;20084;-60
2022/11/29 00:16:57;;;;;;;157.27;89.18;;;128.00;2252.80;;;;;;4991840;28;20034;-62
2022/11/29 00:19:23;;;;;;;234.98;114.65;;;128.00;2252.80;;;;;;4991405;28;20065;-59
2022/11/29 00:21:49;;;;;;;229.18;115.05;;;128.00;2252.80;;;;;;4991612;28;20026;-60
2022/11/29 00:24:15;;;;;;;162.27;92.82;;;128.10;2252.80;;;;;;4991014;28;20026;-63
2022/11/29 00:26:41;;;;;;;194.02;100.10;;;128.10;2252.80;;;;;;4991322;28;20042;-60
2022/11/29 00:29:07;;;;;;;159.18;88.13;;;128.20;2252.80;;;;;;4991711;28;20597;-59
2022/11/29 00:31:33;;;;;;;185.73;98.97;;;128.20;2252.80;;;;;;4991158;28;20420;-59
2022/11/29 00:34:01;;;;;;;151.73;81.10;;;128.20;2252.80;;;;;;4991117;28;20030;-60
2022/11/29 00:36:27;;;;;;;164.35;84.82;;;128.20;2252.80;;;;;;4991288;28;20037;-59
2022/11/29 00:38:53;;;;;;;110.70;63.13;;;128.30;2252.80;;;;;;4991084;28;20038;-59
2022/11/29 00:41:19;;;;;;;140.65;77.57;;;128.30;2252.80;;;;;;4991012;28;20041;-60
2022/11/29 00:43:45;;;;;;;144.60;83.90;;;128.40;2252.80;;;;;;4991250;28;20397;-60
2022/11/29 00:46:11;;;;;;;165.18;91.18;;;128.30;2252.80;;;;;;4991024;28;20022;-60
2022/11/29 00:48:37;;;;;;;144.98;83.35;;;128.30;2252.80;;;;;;4991275;28;20022;-59
2022/11/29 00:51:04;;;;;;;142.00;78.25;;;128.40;2252.80;;;;;;4990939;28;20472;-60
2022/11/29 00:53:31;;;;;;;155.90;90.22;;;128.40;2252.80;;;;;;4990922;28;20073;-60
2022/11/29 00:55:57;;;;;;;123.22;72.57;;;128.40;2252.80;;;;;;4990956;28;20042;-59
2022/11/29 00:58:23;;;;;;;134.32;71.57;;;128.50;2252.80;;;;;;4990976;28;20495;-59
2022/11/29 01:00:49;;;;;;;122.05;72.05;;;128.60;2252.80;;;;;;4990684;28;20023;-60
2022/11/29 01:03:16;;;;;;;118.38;66.40;;;128.50;2252.80;;;;;;4984705;28;20037;-59
2022/11/29 01:05:42;;;;;;;109.10;61.40;;;128.50;2252.80;;;;;;4990499;28;20543;-60
2022/11/29 01:08:09;;;;;;;96.53;59.55;;;128.60;2252.80;;;;;;4990886;28;20053;-60
2022/11/29 01:10:35;;;;;;;99.07;54.45;;;128.60;2252.80;;;;;;4990669;28;20103;-59
2022/11/29 01:13:00;;;;;;;89.07;52.72;;;128.60;2252.80;;;;;;4990735;28;20424;-62
2022/11/29 01:15:27;;;;;;;90.82;49.72;;;128.50;2252.80;;;;;;4990930;28;20076;-58
2022/11/29 01:17:53;;;;;;;86.95;47.13;;;128.50;2252.80;;;;;;4983448;28;20484;-60
2022/11/29 01:20:19;;;;;;;80.47;47.38;;;128.50;2252.80;;;;;;4980776;28;20026;-61
2022/11/29 01:22:45;;;;;;;73.70;43.10;;;128.40;2252.80;;;;;;4979698;28;20027;-60
2022/11/29 01:25:11;;;;;;;86.30;47.65;;;128.40;2252.80;;;;;;4981580;28;20033;-67
2022/11/29 01:27:38;;;;;;;88.53;50.33;;;128.40;2252.80;;;;;;4980695;28;20484;-59
2022/11/29 01:30:07;;;;;;;98.00;54.67;;;128.40;2252.80;;;;;;4987895;28;20041;-59
2022/11/29 01:32:33;;;;;;;140.90;78.10;;;128.30;2252.80;;;;;;4990684;28;20116;-59
2022/11/29 01:34:59;;;;;;;117.35;73.18;;;128.20;2252.80;;;;;;4990409;28;20165;-59
2022/11/29 01:37:27;;;;;;;95.85;59.60;;;128.30;2252.80;;;;;;4994396;28;20062;-60
2022/11/29 01:39:53;;;;;;;101.30;59.42;;;128.10;2252.80;;;;;;4994370;28;20442;-60
2022/11/29 01:42:19;;;;;;;96.07;59.03;;;128.00;2252.80;;;;;;4994309;28;20022;-59
2022/11/29 01:44:44;;;;;;;99.45;61.40;;;103.30;2227.20;;;;;;4994367;28;20109;-60
2022/11/29 01:47:11;;;;;;;94.57;56.00;;;103.30;2227.20;;;;;;4994401;28;20031;-60
2022/11/29 01:49:46;;;;;;;88.75;55.33;;;103.30;2227.20;;;;;;4994439;28;20465;-59
2022/11/29 01:52:42;;;;;;;101.70;59.85;;;103.20;2227.20;;;;;;4994150;28;20033;-60
2022/11/29 01:55:08;;;;;;;92.50;57.13;;;103.00;2227.20;;;;;;4914961;29;20115;-60
2022/11/29 01:57:37;;;;;;;94.20;57.72;;;103.00;2227.20;;;;;;4915305;29;20079;-60
2022/11/29 02:00:09;;;;;;;92.80;58.15;;;103.00;2227.20;;;;;;4915111;29;20528;-60
2022/11/29 02:02:40;;;;;;;109.60;64.32;;;102.90;2227.20;;;;;;4915024;29;20121;-60
2022/11/29 02:05:06;;;;;;;81.97;50.55;;;103.00;2227.20;;;;;;4915224;29;20072;-60
2022/11/29 02:07:32;;;;;;;64.20;38.22;;;102.80;2227.20;;;;;;4914952;29;20387;-59
2022/11/29 02:09:58;;;;;;;62.45;40.20;;;102.80;2227.20;;;;;;4914780;29;20084;-60
2022/11/29 02:12:44;;;;;;;58.13;34.95;;;102.80;2227.20;;;;;;4914852;29;20032;-59
2022/11/29 02:15:35;;;;;;;55.13;34.00;;;102.60;2227.20;;;;;;4914897;29;20111;-60
2022/11/29 02:18:06;;;;;;;56.13;33.55;;;102.50;2227.20;;;;;;4914663;29;20143;-59
2022/11/29 02:20:49;;;;;;;47.88;28.65;;;102.50;2227.20;;;;;;4914563;29;20028;-60
2022/11/29 02:23:30;;;;;;;50.30;30.63;;;102.50;2227.20;;;;;;4914907;29;20040;-59
2022/11/29 02:26:59;;;;;;;50.67;29.48;;;102.50;2227.20;;;;;;4914735;29;20036;-59
2022/11/29 02:29:45;;;;;;;47.97;28.23;;;102.40;2227.20;;;;;;4914624;29;20554;-60
2022/11/29 02:32:36;;;;;;;68.95;38.40;;;77.70;2227.20;;;;;;4944222;28;20434;-60
2022/11/29 02:35:04;;;;;;;72.25;40.58;;;77.70;2227.20;;;;;;4952512;29;20043;-60
2022/11/29 02:37:46;;;;;;;57.85;33.15;;;77.70;2227.20;;;;;;4952299;29;20031;-60
2022/11/29 02:40:30;;;;;;;61.47;31.55;;;77.60;2227.20;;;;;;4952186;28;20123;-59
2022/11/29 02:43:11;;;;;;;56.30;32.15;;;77.60;2227.20;;;;;;4952670;29;20389;-60
2022/11/29 02:46:03;;;;;;;55.90;31.27;;;77.60;2227.20;;;;;;4952722;29;20490;-58
2022/11/29 02:48:50;;;;;;;44.47;26.65;;;77.60;2227.20;;;;;;4923514;29;20039;-60
2022/11/29 02:51:28;;;;;;;57.67;33.00;;;77.60;2227.20;;;;;;4952565;28;20023;-59
2022/11/29 02:54:12;;;;;;;59.95;32.83;;;77.50;2227.20;;;;;;4952335;28;20481;-59
2022/11/29 02:56:57;;;;;;;51.13;28.85;;;77.50;2227.20;;;;;;4952199;29;20056;-60
2022/11/29 02:59:48;;;;;;;42.97;23.90;;;77.40;2227.20;;;;;;4955942;28;20125;-60
2022/11/29 03:02:27;;;;;;;47.10;25.33;;;77.50;2227.20;;;;;;4973568;28;20023;-60
2022/11/29 03:05:23;;;;;;;41.65;26.48;;;77.50;2227.20;;;;;;4973566;28;20417;-59
2022/11/29 03:08:28;;;;;;;34.42;21.85;;;77.40;2227.20;;;;;;4973325;28;20046;-60
2022/11/29 03:11:21;;;;;;;31.98;20.25;;;77.40;2227.20;;;;;;4959496;28;20122;-60
2022/11/29 03:13:55;;;;;;;35.77;18.10;;;77.40;2227.20;;;;;;4973487;28;20549;-62
2022/11/29 03:16:24;;;;;;;33.90;19.08;;;77.40;2227.20;;;;;;4973107;28;20482;-60
2022/11/29 03:18:50;;;;;;;24.25;16.25;;;77.40;2227.20;;;;;;4973150;28;20039;-60
2022/11/29 03:21:21;;;;;;;28.23;17.65;;;77.30;2227.20;;;;;;4973475;28;20046;-60
2022/11/29 03:23:50;;;;;;;32.45;20.88;;;77.30;2227.20;;;;;;4973300;28;20485;-59
2022/11/29 03:26:40;;;;;;;34.42;19.35;;;77.40;2227.20;;;;;;4973264;28;20026;-58
2022/11/29 03:29:23;;;;;;;33.00;19.88;;;77.40;2227.20;;;;;;4973191;28;20382;-60
2022/11/29 03:31:53;;;;;;;31.55;16.52;;;77.40;2227.20;;;;;;4972915;28;20030;-60
2022/11/29 03:34:46;;;;;;;27.52;17.05;;;77.20;2227.20;;;;;;4973034;28;20109;-60
2022/11/29 03:37:17;;;;;;;28.58;16.75;;;77.30;2227.20;;;;;;4972817;28;20030;-60
2022/11/29 03:39:58;;;;;;;26.42;17.60;;;77.30;2227.20;;;;;;4972832;28;20054;-60
2022/11/29 03:42:55;;;;;;;33.55;19.63;;;77.30;2227.20;;;;;;4973035;28;20407;-60
2022/11/29 03:45:34;;;;;;;40.03;23.27;;;77.30;2227.20;;;;;;4971629;28;20358;-60
2022/11/29 03:48:26;;;;;;;35.03;21.55;;;77.20;2227.20;;;;;;4972701;28;20023;-59
2022/11/29 03:51:13;;;;;;;34.72;20.02;;;77.20;2227.20;;;;;;4972516;28;20027;-60
2022/11/29 03:53:58;;;;;;;28.75;17.45;;;77.20;2227.20;;;;;;4972456;28;20023;-59
2022/11/29 03:56:39;;;;;;;29.63;18.77;;;77.20;2227.20;;;;;;4983345;28;20100;-60
2022/11/29 03:59:19;;;;;;;36.70;23.20;;;77.20;2227.20;;;;;;4991155;28;20035;-59
2022/11/29 04:02:31;;;;;;;60.88;33.60;;;77.20;2227.20;;;;;;4991871;28;20076;-58
2022/11/29 04:05:03;;;;;;;58.33;33.78;;;77.30;2227.20;;;;;;4991979;28;20057;-59
2022/11/29 04:07:55;;;;;;;49.40;26.60;;;77.40;2227.20;;;;;;4991510;28;20030;-60
2022/11/29 04:10:32;;;;;;;35.53;22.85;;;77.20;2227.20;;;;;;4991373;28;20084;-59
2022/11/29 04:13:29;;;;;;;34.90;20.23;;;77.20;2227.20;;;;;;4991826;28;20037;-60
2022/11/29 04:16:09;;;;;;;40.80;26.33;;;77.30;2227.20;;;;;;4991789;28;20033;-59
2022/11/29 04:19:13;;;;;;;33.70;21.13;;;77.20;2227.20;;;;;;4991638;28;20404;-59
2022/11/29 04:22:16;;;;;;;26.10;17.90;;;77.10;2227.20;;;;;;4912637;29;20040;-60
2022/11/29 04:24:53;;;;;;;33.13;19.23;;;77.10;2227.20;;;;;;4912070;29;20116;-59
2022/11/29 04:27:36;;;;;;;32.83;19.15;;;77.10;2227.20;;;;;;4912436;29;20070;-60
2022/11/29 04:30:17;;;;;;;32.92;19.30;;;77.10;2227.20;;;;;;4912371;29;20032;-60
2022/11/29 04:32:49;;;;;;;29.73;19.27;;;77.20;2227.20;;;;;;4912465;29;20067;-60
2022/11/29 04:35:20;;;;;;;34.10;22.58;;;77.10;2227.20;;;;;;4912421;29;20028;-59
2022/11/29 04:37:58;;;;;;;38.38;23.40;;;77.00;2227.20;;;;;;4912416;29;20044;-59
2022/11/29 04:41:01;;;;;;;31.02;19.38;;;77.00;2227.20;;;;;;4912509;29;20062;-60
2022/11/29 04:44:03;;;;;;;33.95;18.70;;;77.00;2227.20;;;;;;4912469;29;20032;-60
2022/11/29 04:47:00;;;;;;;33.95;19.55;;;77.00;2227.20;;;;;;4912233;29;20554;-60
2022/11/29 04:49:47;;;;;;;30.35;17.92;;;77.00;2227.20;;;;;;4912267;29;20035;-60
2022/11/29 04:52:18;;;;;;;32.72;18.20;;;77.00;2227.20;;;;;;4911855;29;20130;-60
2022/11/29 04:54:56;;;;;;;32.15;19.45;;;77.00;2227.20;;;;;;4912178;29;20032;-59
2022/11/29 04:57:42;;;;;;;30.33;17.40;;;77.00;2227.20;;;;;;4923809;28;20047;-60
2022/11/29 05:00:10;;;;;;;23.83;16.33;;;77.20;2227.20;;;;;;4971784;28;20034;-60
2022/11/29 05:02:40;;;;;;;36.92;23.42;;;77.20;2227.20;;;;;;4970361;28;20430;-59
2022/11/29 05:05:20;;;;;;;31.95;17.00;;;77.20;2227.20;;;;;;4971680;28;20045;-59
2022/11/29 05:08:23;;;;;;;29.20;17.42;;;77.20;2227.20;;;;;;4971683;28;20114;-60
2022/11/29 05:11:17;;;;;;;32.30;18.77;;;77.20;2227.20;;;;;;4971081;28;20109;-60
2022/11/29 05:13:58;;;;;;;;;;;77.20;2227.20;;;;;;4972172;28;20027;-60
2022/11/29 05:16:58;;;;;;;29.08;19.02;;;77.20;2227.20;;;;;;4971567;28;19906;-60
2022/11/29 05:19:52;;;;;;;32.85;17.85;;;77.10;2227.20;;;;;;4911753;29;20586;-59
2022/11/29 05:22:53;;;;;;;29.85;19.05;;;77.10;2227.20;;;;;;4858363;29;20422;-60
2022/11/29 05:25:40;;;;;;;27.55;16.23;;;77.20;2227.20;;;;;;4818940;29;20137;-60
2022/11/29 05:28:15;;;;;;;30.77;18.80;;;77.30;2227.20;;;;;;4819376;29;20134;-60
2022/11/29 05:30:53;;;;;;;31.20;19.50;;;77.40;2227.20;;;;;;4819118;29;20426;-60
2022/11/29 05:33:28;;;;;;;26.98;16.83;;;77.50;2227.20;;;;;;4819072;29;20046;-60
2022/11/29 05:36:15;;;;;;;24.75;17.05;;;77.60;2227.20;;;;;;4819199;29;20398;-60
2022/11/29 05:38:53;;;;;;;28.55;16.45;;;77.60;2227.20;;;;;;4818902;29;20042;-59
2022/11/29 05:41:40;;;;;;;28.15;15.07;;;77.60;2227.20;;;;;;4818607;29;20038;-60
2022/11/29 05:44:28;;;;;;;24.30;16.15;;;77.70;2227.20;;;;;;4819041;29;20425;-60
2022/11/29 05:47:00;;;;;;;27.30;15.70;;;77.70;2227.20;;;;;;4819155;29;20043;-60
2022/11/29 05:49:59;;;;;;;24.98;15.52;;;102.40;2227.20;;;;;;4819052;29;20046;-60
2022/11/29 05:53:10;;;;;;;25.67;17.25;;;102.50;2227.20;;;;;;4818981;29;20099;-60
2022/11/29 05:56:17;;;;;;;25.08;13.98;;;102.50;2227.20;;;;;;4831687;29;20048;-59
2022/11/29 05:58:55;;;;;;;36.55;16.85;;;102.50;2227.20;;;;;;4876713;29;20107;-60
2022/11/29 06:01:28;;;;;;;29.30;15.65;;;102.60;2227.20;;;;;;4953060;28;20034;-60
2022/11/29 06:04:12;;;;;;;28.05;15.88;;;102.50;2227.20;;;;;;4990283;28;20481;-60
2022/11/29 06:07:07;;;;;;;22.40;12.55;;;102.60;2227.20;;;;;;4990371;28;20034;-59
2022/11/29 06:09:39;;;;;;;27.05;16.08;;;102.60;2227.20;;;;;;4990192;28;20436;-60
2022/11/29 06:12:25;;;;;;;24.40;16.02;;;102.70;2227.20;;;;;;4990100;28;20033;-60
2022/11/29 06:15:10;;;;;;;30.05;17.38;;;102.70;2227.20;;;;;;4989993;28;20103;-59
2022/11/29 06:18:13;;;;;;;28.05;17.08;;;102.70;2227.20;;;;;;4990357;28;20026;-59
2022/11/29 06:21:01;;;;;;;30.92;18.73;;;102.70;2227.20;;;;;;4990124;28;20543;-59
2022/11/29 06:23:40;;;;;;;33.05;18.58;;;102.80;2227.20;;;;;;4993784;28;20109;-59
2022/11/29 06:26:33;;;;;;;29.75;18.55;;;102.80;2227.20;;;;;;4993791;28;20045;-60
2022/11/29 06:29:18;;;;;;;33.03;19.75;;;102.90;2227.20;;;;;;4993509;28;20026;-60
2022/11/29 06:31:51;;;;;;;27.92;18.00;;;102.80;2227.20;;;;;;4993679;28;20034;-60
2022/11/29 06:34:41;;;;;;;35.73;19.73;;;103.00;2227.20;;;;;;4993812;28;20105;-59
2022/11/29 06:37:35;;;;;;;35.15;19.70;;;102.90;2227.20;;;;;;4993700;28;20277;-59
2022/11/29 06:40:02;;;;;;;30.88;20.60;;;102.90;2227.20;;;;;;4914295;29;20071;-60
2022/11/29 06:42:27;;;;;;;66.65;44.05;;;102.90;2227.20;;;;;;4914560;29;20024;-59
2022/11/29 06:44:53;;;;;;;59.47;41.03;;;103.00;2227.20;;;;;;4914584;29;20040;-60
2022/11/29 06:47:26;;;;;;;77.97;50.65;;;103.10;2227.20;;;;;;4914305;29;20024;-60
2022/11/29 06:50:22;;;;;;;121.38;80.78;;;103.00;2227.20;;;;;;4914113;29;20036;-59
2022/11/29 06:53:05;;;;;;;111.93;65.65;;;103.10;2227.20;;;;;;4895046;29;20082;-60
2022/11/29 06:55:56;;;;;;;115.43;73.40;;;103.10;2227.20;;;;;;4895085;29;20072;-60
2022/11/29 06:58:25;;;;;;;100.07;63.63;;;103.20;2227.20;;;;;;4895087;29;20044;-59
2022/11/29 07:01:07;;;;;;;94.22;60.88;;;103.30;2227.20;;;;;;4895233;29;20032;-60
2022/11/29 07:04:06;;;;;;;102.70;58.67;;;103.30;2227.20;;;;;;4895011;29;20032;-57
2022/11/29 07:06:34;;;;;;;68.03;46.58;;;128.10;2252.80;;;;;;4894911;29;20032;-58
2022/11/29 07:09:21;;;;;;;71.53;50.17;;;128.10;2252.80;;;;;;4895058;29;20043;-59
2022/11/29 07:11:47;;;;;;;83.55;51.88;;;128.20;2252.80;;;;;;4894822;29;20060;-62
2022/11/29 07:14:13;;;;;;;84.85;53.33;;;128.30;2252.80;;;;;;4894776;29;20067;-58
2022/11/29 07:16:49;;;;;;;71.30;45.28;;;128.30;2252.80;;;;;;4906205;29;20095;-58
2022/11/29 07:19:30;;;;;;;86.88;51.42;;;128.50;2252.80;;;;;;4913855;29;20110;-61
2022/11/29 07:22:04;;;;;;;72.55;47.03;;;128.50;2252.80;;;;;;4913991;29;20055;-60
2022/11/29 07:24:37;;;;;;;97.55;55.75;;;128.60;2252.80;;;;;;4913677;29;20032;-56
2022/11/29 07:27:10;;;;;;;81.72;45.72;;;128.90;2252.80;;;;;;4913496;29;20541;-58
2022/11/29 07:30:01;;;;;;;96.90;55.67;;;128.90;2252.80;;;;;;4935623;28;20142;-56
2022/11/29 07:32:27;;;;;;;62.42;41.20;;;128.90;2252.80;;;;;;4972642;28;20281;-56
2022/11/29 07:35:23;;;;;;;81.18;45.53;;;128.90;2252.80;;;;;;4972253;28;20422;-60
2022/11/29 07:37:57;;;;;;;74.10;49.45;;;128.80;2252.80;;;;;;4968661;28;20058;-59
2022/11/29 07:40:45;;;;;;;;;;;128.60;2252.80;;;;;;4958658;28;20035;-60
2022/11/29 07:43:19;;;;;;;62.63;40.40;;;128.50;2252.80;;;;;;4911904;29;19915;-60
2022/11/29 07:45:45;;;;;;;94.72;49.47;;;128.50;2252.80;;;;;;4913369;29;20081;-56
2022/11/29 07:48:11;;;;;;;98.78;54.67;;;128.50;2252.80;;;;;;4913297;29;20064;-56
2022/11/29 07:50:38;;;;;;;91.25;47.95;;;128.40;2252.80;;;;;;4913479;29;20040;-58
2022/11/29 07:53:04;;;;;;;101.55;51.25;;;128.50;2252.80;;;;;;4913443;29;20028;-61
2022/11/29 07:55:33;;;;;;;100.88;54.17;;;128.60;2252.80;;;;;;4916556;29;20058;-61
2022/11/29 07:57:58;;;;;;;67.03;37.55;;;153.60;2252.80;;;;;;4931926;29;20036;-58
2022/11/29 08:00:24;;;;;;;70.18;39.83;;;128.80;2252.80;;;;;;4932143;29;20190;-61
2022/11/29 08:02:50;;;;;;;79.60;45.90;;;128.80;2252.80;;;;;;4931935;29;20036;-57
2022/11/29 08:05:16;;;;;;;65.63;43.85;;;153.80;2252.80;;;;;;4931844;29;20051;-61
2022/11/29 08:07:42;;;;;;;70.10;44.50;;;153.90;2252.80;;;;;;4931726;29;20046;-57
2022/11/29 08:10:14;;;;;;;66.80;43.13;;;154.00;2252.80;;;;;;4931982;29;20060;-57
2022/11/29 08:12:45;;;;;;;84.78;52.53;;;153.90;2252.80;;;;;;4931736;29;20030;-57
2022/11/29 08:15:11;;;;;;;92.63;54.35;;;128.90;2252.80;;;;;;4931683;29;20122;-57
2022/11/29 08:17:38;;;;;;;87.38;53.53;;;153.80;2252.80;;;;;;4932095;29;20051;-61
2022/11/29 08:20:05;;;;;;;96.72;61.42;;;154.00;2252.80;;;;;;4950393;28;20062;-61
2022/11/29 08:22:30;;;;;;;95.60;58.20;;;153.90;2252.80;;;;;;4971961;28;20019;-62
2022/11/29 08:24:57;;;;;;;94.63;54.08;;;154.20;2252.80;;;;;;4965512;28;20077;-57
2022/11/29 08:27:23;;;;;;;102.60;61.70;;;154.10;2252.80;;;;;;4952533;29;20027;-58
2022/11/29 08:29:48;;;;;;;101.38;59.15;;;154.10;2252.80;;;;;;4952795;28;20107;-58
2022/11/29 08:32:14;;;;;;;100.78;62.05;;;153.80;2252.80;;;;;;4952855;28;20019;-57
2022/11/29 08:34:40;;;;;;;94.25;58.60;;;153.80;2252.80;;;;;;4952748;28;20031;-61
2022/11/29 08:37:05;;;;;;;96.05;61.70;;;154.10;2252.80;;;;;;4952825;28;20367;-63
2022/11/29 08:39:31;;;;;;;86.57;56.28;;;154.20;2252.80;;;;;;4952438;28;20397;-57
2022/11/29 08:41:57;;;;;;;97.55;60.83;;;154.40;2252.80;;;;;;4953004;28;20035;-57
2022/11/29 08:44:22;;;;;;;125.63;75.90;;;154.30;2252.80;;;;;;4951963;28;20042;-57
2022/11/29 08:49:32;;;;;;;103.18;67.05;;;154.20;2252.80;;;;;;4952630;28;20086;-61
2022/11/29 08:54:43;;;;;;;93.00;61.25;;;154.30;2252.80;;;;;;4952476;29;20047;-58
2022/11/29 08:57:08;;;;;;;161.40;88.25;;;154.50;2252.80;;;;;;4968832;28;20050;-58
2022/11/29 08:59:34;;;;;;;99.60;61.30;;;154.40;2252.80;;;;;;4971541;28;20085;-61
2022/11/29 09:02:00;;;;;;;88.53;52.22;;;154.50;2252.80;;;;;;4971376;28;20034;-60
2022/11/29 09:04:26;;;;;;;92.50;58.58;;;179.40;2252.80;;;;;;4971430;28;20303;-61
2022/11/29 09:06:51;;;;;;;95.63;62.88;;;179.30;2252.80;;;;;;4971238;28;20027;-57
2022/11/29 09:09:17;;;;;;;85.88;52.45;;;179.40;2252.80;;;;;;4971526;28;20389;-61
2022/11/29 09:11:43;;;;;;;75.47;42.75;;;179.70;2252.80;;;;;;4971280;28;20052;-56
2022/11/29 09:14:14;;;;;;;74.55;46.88;;;179.80;2252.80;;;;;;4971276;28;20066;-57
2022/11/29 09:16:39;;;;;;;60.95;40.47;;;179.80;2252.80;;;;;;4971267;28;20114;-57
2022/11/29 09:19:06;;;;;;;62.78;43.00;;;179.60;2252.80;;;;;;4971326;28;20456;-60
2022/11/29 09:21:35;;;;;;;51.35;28.60;;;179.60;2252.80;;;;;;4971659;28;20398;-56
2022/11/29 09:24:05;;;;;;;49.10;28.20;;;179.50;2252.80;;;;;;4971248;28;20474;-57
2022/11/29 09:26:35;;;;;;;50.60;35.03;;;179.70;2252.80;;;;;;4971146;28;20066;-60
2022/11/29 09:29:03;;;;;;;54.70;35.60;;;179.80;2252.80;;;;;;4971345;28;20027;-57
2022/11/29 09:31:30;;;;;;;52.88;34.58;;;179.90;2252.80;;;;;;4971135;28;20488;-57
2022/11/29 09:33:56;;;;;;;45.60;28.50;;;180.10;2252.80;;;;;;4971676;28;20437;-61
2022/11/29 09:36:22;;;;;;;47.92;34.20;;;179.90;2252.80;;;;;;4971046;28;20055;-57
2022/11/29 09:38:47;;;;;;;54.65;33.10;;;179.90;2252.80;;;;;;4971211;28;20062;-61
2022/11/29 09:41:33;;;;;;;46.67;27.92;;;180.00;2252.80;;;;;;4971248;28;20023;-61
2022/11/29 09:44:05;;;;;;;62.50;33.10;;;179.80;2252.80;;;;;;4970526;28;20122;-61
2022/11/29 09:46:46;;;;;;;54.45;33.00;;;179.80;2252.80;;;;;;4971282;28;20089;-58
2022/11/29 09:49:30;;;;;;;65.80;36.80;;;179.80;2252.80;;;;;;4971145;28;20100;-59
2022/11/29 09:52:20;;;;;;;50.90;29.60;;;180.00;2252.80;;;;;;4971148;28;20544;-56
2022/11/29 09:55:08;;;;;;;40.42;28.27;;;180.10;2252.80;;;;;;4971020;28;20023;-62
2022/11/29 09:57:35;;;;;;;49.22;29.35;;;204.90;2252.80;;;;;;4973364;28;20050;-60
2022/11/29 10:00:05;;;;;;;35.20;24.17;;;205.20;2252.80;;;;;;4974655;28;20093;-57
2022/11/29 10:02:44;;;;;;;38.13;22.63;;;205.40;2252.80;;;;;;4974601;28;20121;-58
2022/11/29 10:05:20;;;;;;;35.97;24.17;;;205.20;2252.80;;;;;;4974545;28;20058;-57
2022/11/29 10:07:54;;;;;;;50.10;31.70;;;205.20;2252.80;;;;;;4974962;28;20390;-62
2022/11/29 10:10:29;;;;;;;73.25;47.72;;;205.20;2252.80;;;;;;4974495;28;20022;-61
2022/11/29 10:13:15;;;;;;;52.40;30.33;;;205.10;2252.80;;;;;;4974600;28;20027;-59
2022/11/29 10:15:44;;;;;;;46.85;31.33;;;205.00;2252.80;;;;;;4974416;28;20093;-60
2022/11/29 10:18:14;;;;;;;50.75;31.55;;;204.90;2252.80;;;;;;4974444;28;20549;-57
2022/11/29 10:20:43;;;;;;;50.83;32.90;;;205.00;2252.80;;;;;;4974486;28;20421;-57
2022/11/29 10:23:30;;;;;;;67.38;41.35;;;205.00;2252.80;;;;;;4974491;28;20022;-60
2022/11/29 10:25:57;;;;;;;63.33;40.08;;;204.90;2252.80;;;;;;4974498;28;20023;-57
2022/11/29 10:28:30;;;;;;;59.05;43.60;;;204.80;2252.80;;;;;;4974157;28;20027;-57
2022/11/29 10:31:00;;;;;;;54.67;38.65;;;205.00;2252.80;;;;;;4974398;28;20031;-57
2022/11/29 10:33:33;;;;;;;53.00;32.13;;;205.00;2252.80;;;;;;4974320;28;20512;-56
2022/11/29 10:36:03;;;;;;;66.38;37.40;;;204.90;2252.80;;;;;;4973962;28;20058;-58
2022/11/29 10:38:29;;;;;;;53.05;35.47;;;204.90;2252.80;;;;;;4974004;28;20034;-59
2022/11/29 10:41:07;;;;;;;30.13;20.70;;;205.00;2252.80;;;;;;4974086;28;20473;-61
2022/11/29 10:43:33;;;;;;;46.25;28.65;;;205.30;2252.80;;;;;;4974194;28;20026;-61
2022/11/29 10:46:01;;;;;;;26.20;17.85;;;205.30;2252.80;;;;;;4974186;28;20437;-61
2022/11/29 10:48:32;;;;;;;33.05;24.30;;;205.30;2252.80;;;;;;4974093;28;20034;-60
2022/11/29 10:50:59;;;;;;;61.67;39.92;;;205.40;2252.80;;;;;;4973610;28;20118;-57
2022/11/29 10:53:29;;;;;;;45.33;31.63;;;205.70;2252.80;;;;;;4973689;28;20470;-61
2022/11/29 10:56:22;;;;;;;21.77;13.90;;;205.70;2252.80;;;;;;4973820;28;20047;-61
2022/11/29 10:58:57;;;;;;;26.27;16.80;;;205.40;2252.80;;;;;;4973515;28;20097;-57
2022/11/29 11:01:24;;;;;;;35.67;24.88;;;205.20;2252.80;;;;;;4973726;28;20166;-57
2022/11/29 11:03:52;;;;;;;30.80;20.83;;;205.10;2252.80;;;;;;4973600;28;20034;-57
2022/11/29 11:06:21;;;;;;;34.67;25.52;;;205.10;2252.80;;;;;;4973441;28;20023;-62
2022/11/29 11:08:56;;;;;;;24.02;17.10;;;205.20;2252.80;;;;;;4973303;28;20031;-62
2022/11/29 11:11:29;;;;;;;39.33;24.27;;;205.20;2252.80;;;;;;4973173;28;20031;-63
2022/11/29 11:14:04;;;;;;;91.18;45.70;;;205.20;2252.80;;;;;;4973573;28;20082;-63
2022/11/29 11:16:31;;;;;;;68.78;41.90;;;205.20;2252.80;;;;;;4973379;28;20027;-60
2022/11/29 11:18:56;;;;;;;99.88;55.50;;;205.20;2252.80;;;;;;4973552;28;20057;-57
2022/11/29 11:21:25;;;;;;;66.38;38.03;;;205.20;2252.80;;;;;;4973321;28;20470;-57
2022/11/29 11:23:53;;;;;;;63.67;40.15;;;205.20;2252.80;;;;;;4973134;28;20043;-57
2022/11/29 11:26:19;;;;;;;54.00;33.58;;;205.50;2252.80;;;;;;4973104;28;20114;-57
2022/11/29 11:28:51;;;;;;;62.40;35.45;;;205.50;2252.80;;;;;;4973332;28;20030;-57
2022/11/29 11:31:36;;;;;;;60.22;38.20;;;205.50;2252.80;;;;;;4973186;28;20425;-58
2022/11/29 11:34:32;;;;;;;73.25;46.03;;;205.60;2252.80;;;;;;4973082;28;20086;-61
2022/11/29 11:37:37;;;;;;;65.97;41.47;;;230.40;2252.80;;;;;;4971472;28;20031;-60
2022/11/29 11:40:29;;;;;;;68.95;42.40;;;205.60;2252.80;;;;;;4972536;28;20047;-60
2022/11/29 11:43:01;;;;;;;50.03;33.47;;;205.50;2252.80;;;;;;4969687;28;20098;-60
2022/11/29 11:45:35;;;;;;;61.92;34.47;;;205.70;2252.80;;;;;;4973138;28;20379;-61
2022/11/29 11:48:13;;;;;;;61.67;34.85;;;230.40;2252.80;;;;;;4972596;28;20120;-61
2022/11/29 11:50:48;;;;;;;33.53;22.05;;;205.70;2252.80;;;;;;4972579;28;20110;-62
2022/11/29 11:53:29;;;;;;;31.38;19.92;;;205.60;2252.80;;;;;;4989343;28;20420;-60
2022/11/29 11:56:01;;;;;;;33.55;23.52;;;205.60;2252.80;;;;;;4980569;28;20490;-57
2022/11/29 11:58:31;;;;;;;47.95;28.33;;;205.50;2252.80;;;;;;4986935;28;20046;-58
2022/11/29 12:01:13;;;;;;;71.95;40.95;;;205.40;2252.80;;;;;;4973096;28;20066;-60
2022/11/29 12:03:42;;;;;;;69.05;40.35;;;205.40;2252.80;;;;;;4972601;28;20035;-57
2022/11/29 12:06:38;;;;;;;63.05;35.08;;;205.40;2252.80;;;;;;4972444;28;20023;-61
2022/11/29 12:09:07;;;;;;;64.60;36.20;;;205.40;2252.80;;;;;;4972446;28;20031;-61
2022/11/29 12:12:00;;;;;;;62.88;36.03;;;205.50;2252.80;;;;;;4972315;28;20513;-56
2022/11/29 12:14:49;;;;;;;31.30;20.38;;;205.50;2252.80;;;;;;4958588;28;20497;-61
2022/11/29 12:17:38;;;;;;;41.75;25.17;;;205.50;2252.80;;;;;;4972358;28;20557;-61
2022/11/29 12:20:17;;;;;;;30.40;20.77;;;205.60;2252.80;;;;;;4971749;28;20031;-57
2022/11/29 12:23:18;;;;;;;44.78;25.83;;;205.50;2252.80;;;;;;4971962;28;20023;-58
2022/11/29 12:25:47;;;;;;;31.38;20.08;;;205.30;2252.80;;;;;;4972167;28;20354;-57
2022/11/29 12:28:15;;;;;;;37.78;24.17;;;205.30;2252.80;;;;;;4972104;28;20027;-59
2022/11/29 12:30:51;;;;;;;19.63;13.50;;;205.30;2252.80;;;;;;4972149;28;20058;-59
2022/11/29 12:33:34;;;;;;;31.13;22.80;;;205.20;2252.80;;;;;;4972242;28;20062;-57
2022/11/29 12:36:08;;;;;;;32.55;20.40;;;205.20;2252.80;;;;;;4971885;28;20090;-61
2022/11/29 12:38:43;;;;;;;42.75;27.55;;;205.30;2252.80;;;;;;4971765;28;20039;-60
2022/11/29 12:41:15;;;;;;;34.50;22.55;;;205.20;2252.80;;;;;;4971705;28;20493;-57
2022/11/29 12:43:51;;;;;;;43.63;27.40;;;205.10;2252.80;;;;;;4971701;28;20106;-61
2022/11/29 12:46:28;;;;;;;47.22;30.38;;;205.30;2252.80;;;;;;4971857;28;20031;-61
2022/11/29 12:48:56;;;;;;;49.35;32.13;;;205.40;2252.80;;;;;;4971615;28;20023;-61
2022/11/29 12:51:38;;;;;;;44.47;31.17;;;205.40;2252.80;;;;;;4971409;28;20537;-57
2022/11/29 12:54:49;;;;;;;33.85;21.92;;;205.50;2252.80;;;;;;4971570;28;20038;-58